PWSweather.com
Personal Weather Stations
Station Observations
MAGOO
Kiefer, OK 74041

Kiefer, OK 74041

Lat: 35.9417305, Lon: -96.03782654

Elevation: 699

Station Type: WMR100N

Latest ConditionsUpdated 1:35:00 AM CST Monday, Nov 24, 2014
Currently Today's Max Today's Min Today's Average
Temperature 39.7°F4.3°C 41.4°F5.2°C 39.7°F4.3°C 40.5°F4.7°C
Dew Point 26.7°F-2.9°C 28.5°F-1.9°C 26.2°F-3.2°C 27.1°F-2.7°C
Winds 6.0 mph WSW9.7 kmh WSW 7.0 mph WSW11.3 kmh WSW - 5.9 mph 9.5 kmh
Wind Gusts 7.0 mph11.3 kmh 11.0 mph17.7 kmh - -
Humidity 85% 85% 83% 84%
Pressure 29.74 in1007.1 mb 29.74 in1007.1 mb 29.68 in1005.1 mb -
Hour Temp Dew Point Humidity Winds Wind Gusts Pressure Precip Precip Rate Daily Precip Total
01:35 AM 39.7°F4.3°C 26.7°F-2.9°C 85% 6.0 mph WSW9.7 kmh WSW 7.0 mph11.3 kmh 29.74 in1007.1 mb 0.00 in0.0 mm 0.00 in/hr0.0 mm/hr 0.00 in0.0 mm
01:30 AM 39.8°F4.3°C 26.9°F-2.8°C 85% 5.0 mph WSW8.0 kmh WSW 7.0 mph11.3 kmh 29.74 in1007.1 mb 0.00 in0.0 mm 0.00 in/hr0.0 mm/hr 0.00 in0.0 mm
01:25 AM 39.8°F4.3°C 27.0°F-2.8°C 85% 6.0 mph WSW9.7 kmh WSW 8.0 mph12.9 kmh 29.74 in1007.1 mb 0.00 in0.0 mm 0.00 in/hr0.0 mm/hr 0.00 in0.0 mm
01:20 AM 39.9°F4.4°C 27.0°F-2.8°C 85% 5.0 mph W8.0 kmh W 8.0 mph12.9 kmh 29.74 in1007.1 mb 0.00 in0.0 mm 0.00 in/hr0.0 mm/hr 0.00 in0.0 mm
01:15 AM 39.9°F4.4°C 27.0°F-2.8°C 85% 6.0 mph WSW9.7 kmh WSW 9.0 mph14.5 kmh 29.74 in1007.1 mb 0.00 in0.0 mm 0.00 in/hr0.0 mm/hr 0.00 in0.0 mm
01:10 AM 39.9°F4.4°C 26.9°F-2.8°C 85% 6.0 mph W9.7 kmh W 9.0 mph14.5 kmh 29.74 in1007.1 mb 0.00 in0.0 mm 0.00 in/hr0.0 mm/hr 0.00 in0.0 mm
01:05 AM 39.9°F4.4°C 26.5°F-3.1°C 84% 6.0 mph W9.7 kmh W 9.0 mph14.5 kmh 29.74 in1007.1 mb 0.00 in0.0 mm 0.00 in/hr0.0 mm/hr 0.00 in0.0 mm
01:00 AM 40.0°F4.4°C 26.2°F-3.2°C 83% 5.0 mph WSW8.0 kmh WSW 6.0 mph9.7 kmh 29.74 in1007.1 mb 0.00 in0.0 mm 0.00 in/hr0.0 mm/hr 0.00 in0.0 mm
12:55 AM 40.2°F4.6°C 26.4°F-3.1°C 83% 5.0 mph WSW8.0 kmh WSW 8.0 mph12.9 kmh 29.74 in1007.1 mb 0.00 in0.0 mm 0.00 in/hr0.0 mm/hr 0.00 in0.0 mm
12:50 AM 40.4°F4.7°C 26.5°F-3.1°C 83% 5.0 mph WSW8.0 kmh WSW 9.0 mph14.5 kmh 29.74 in1007.1 mb 0.00 in0.0 mm 0.00 in/hr0.0 mm/hr 0.00 in0.0 mm
12:45 AM 40.6°F4.8°C 26.8°F-2.9°C 83% 6.0 mph WSW9.7 kmh WSW 8.0 mph12.9 kmh 29.74 in1007.1 mb 0.00 in0.0 mm 0.00 in/hr0.0 mm/hr 0.00 in0.0 mm
12:40 AM 40.7°F4.8°C 26.8°F-2.9°C 83% 7.0 mph WSW11.3 kmh WSW 9.0 mph14.5 kmh 29.74 in1007.1 mb 0.00 in0.0 mm 0.00 in/hr0.0 mm/hr 0.00 in0.0 mm
12:35 AM 40.8°F4.9°C 26.9°F-2.8°C 83% 7.0 mph WSW11.3 kmh WSW 10.0 mph16.1 kmh 29.73 in1006.8 mb 0.00 in0.0 mm 0.00 in/hr0.0 mm/hr 0.00 in0.0 mm
12:30 AM 40.9°F4.9°C 27.2°F-2.7°C 83% 7.0 mph W11.3 kmh W 11.0 mph17.7 kmh 29.71 in1006.1 mb 0.00 in0.0 mm 0.00 in/hr0.0 mm/hr 0.00 in0.0 mm
12:25 AM 41.0°F5.0°C 27.6°F-2.4°C 84% 7.0 mph W11.3 kmh W 10.0 mph16.1 kmh 29.71 in1006.1 mb 0.00 in0.0 mm 0.00 in/hr0.0 mm/hr 0.00 in0.0 mm
12:20 AM 41.0°F5.0°C 27.6°F-2.4°C 84% 6.0 mph W9.7 kmh W 8.0 mph12.9 kmh 29.71 in1006.1 mb 0.00 in0.0 mm 0.00 in/hr0.0 mm/hr 0.00 in0.0 mm
12:15 AM 41.0°F5.0°C 27.7°F-2.4°C 84% 6.0 mph W9.7 kmh W 8.0 mph12.9 kmh 29.71 in1006.1 mb 0.00 in0.0 mm 0.00 in/hr0.0 mm/hr 0.00 in0.0 mm
12:10 AM 41.1°F5.1°C 28.2°F-2.1°C 85% 6.0 mph W9.7 kmh W 8.0 mph12.9 kmh 29.70 in1005.8 mb 0.00 in0.0 mm 0.00 in/hr0.0 mm/hr 0.00 in0.0 mm
12:05 AM 41.1°F5.1°C 28.2°F-2.1°C 85% 5.0 mph W8.0 kmh W 9.0 mph14.5 kmh 29.70 in1005.8 mb 0.00 in0.0 mm 0.00 in/hr0.0 mm/hr 0.00 in0.0 mm
12:00 AM 41.4°F5.2°C 28.5°F-1.9°C 85% 5.0 mph W8.0 kmh W 8.0 mph12.9 kmh 29.68 in1005.1 mb 0.00 in0.0 mm 0.00 in/hr0.0 mm/hr 0.00 in0.0 mm